createdAt,value
2023-05-08T00:00:53.539Z,15.86
2023-05-08T00:07:17.024Z,15.60
2023-05-08T00:08:10.124Z,15.54
2023-05-08T00:09:13.545Z,15.52
2023-05-08T00:10:11.092Z,15.52
2023-05-08T00:11:11.361Z,15.54
2023-05-08T00:12:11.587Z,15.57
2023-05-08T00:13:10.486Z,15.60
2023-05-08T00:14:11.768Z,15.61
2023-05-08T00:15:11.120Z,15.63
2023-05-08T00:21:15.617Z,15.42
2023-05-08T00:22:22.506Z,15.39
2023-05-08T00:23:16.055Z,15.39
2023-05-08T00:24:16.507Z,15.42
2023-05-08T00:25:38.865Z,15.43
2023-05-08T00:26:16.374Z,15.46
2023-05-08T00:27:16.903Z,15.49
2023-05-08T00:28:17.177Z,15.51
2023-05-08T00:29:16.299Z,15.49
2023-05-08T00:30:16.315Z,15.51
2023-05-08T00:31:16.592Z,15.52
2023-05-08T00:32:17.728Z,15.52
2023-05-08T00:33:16.575Z,15.52
2023-05-08T00:37:27.202Z,15.42
2023-05-08T00:38:22.594Z,15.38
2023-05-08T00:39:22.089Z,15.35
2023-05-08T00:40:22.062Z,15.36
2023-05-08T00:41:22.049Z,15.35
2023-05-08T00:42:22.297Z,15.36
2023-05-08T00:43:22.290Z,15.38
2023-05-08T00:44:22.286Z,15.38
2023-05-08T00:45:22.394Z,15.41
2023-05-08T00:46:22.754Z,15.41
2023-05-08T00:47:22.581Z,15.41
2023-05-08T00:48:22.651Z,15.43
2023-05-08T00:49:22.745Z,15.45
2023-05-08T00:50:23.473Z,15.46
2023-05-08T00:51:22.888Z,15.48
2023-05-08T00:52:22.893Z,15.51
2023-05-08T00:53:23.881Z,15.54
2023-05-08T00:54:23.075Z,15.56
2023-05-08T00:55:23.156Z,15.56
2023-05-08T00:56:24.254Z,15.56
2023-05-08T00:57:23.332Z,15.56
2023-05-08T00:58:23.433Z,15.57
2023-05-08T00:59:23.484Z,15.57
2023-05-08T01:00:23.720Z,15.59
2023-05-08T01:01:23.788Z,15.59
2023-05-08T01:02:23.906Z,15.60
2023-05-08T01:03:24.081Z,15.60
2023-05-08T01:04:24.019Z,15.60
2023-05-08T01:05:23.991Z,15.60
2023-05-08T01:06:24.216Z,15.61
2023-05-08T01:07:24.135Z,15.63
2023-05-08T01:08:24.254Z,15.63
2023-05-08T01:09:24.400Z,15.63
2023-05-08T01:10:24.363Z,15.64
2023-05-08T01:11:24.431Z,15.64
2023-05-08T01:12:24.607Z,15.66
2023-05-08T01:13:24.874Z,15.67
2023-05-08T01:14:24.743Z,15.67
2023-05-08T01:15:24.837Z,15.67
2023-05-08T01:16:25.170Z,15.67
2023-05-08T01:17:25.127Z,15.67
2023-05-08T01:18:25.378Z,15.66
2023-05-08T01:19:25.241Z,15.67
2023-05-08T01:20:25.473Z,15.67
2023-05-08T01:21:25.413Z,15.67
2023-05-08T01:22:25.482Z,15.68
2023-05-08T01:23:25.451Z,15.68
2023-05-08T01:24:25.772Z,15.67
2023-05-08T01:25:25.673Z,15.66
2023-05-08T01:26:25.678Z,15.66
2023-05-08T01:27:26.933Z,15.64
2023-05-08T01:33:22.742Z,15.30
2023-05-08T01:34:22.831Z,15.28
2023-05-08T01:35:22.938Z,15.27
2023-05-08T01:36:22.875Z,15.30
2023-05-08T01:37:22.917Z,15.33
2023-05-08T01:38:22.988Z,15.35
2023-05-08T01:39:23.115Z,15.36
2023-05-08T01:40:23.204Z,15.36
2023-05-08T01:41:23.319Z,15.38
2023-05-08T01:42:24.110Z,15.39
2023-05-08T01:43:23.515Z,15.42
2023-05-08T01:44:23.787Z,15.42
2023-05-08T01:45:23.550Z,15.43
2023-05-08T01:46:23.736Z,15.43
2023-05-08T01:47:23.738Z,15.46
2023-05-08T01:48:23.834Z,15.45
2023-05-08T01:49:23.884Z,15.48
2023-05-08T01:50:24.112Z,15.48
2023-05-08T01:51:23.968Z,15.49
2023-05-08T01:52:24.318Z,15.49
2023-05-08T01:53:24.240Z,15.51
2023-05-08T01:54:24.320Z,15.51
2023-05-08T01:55:25.040Z,15.51
2023-05-08T01:56:25.413Z,15.52
2023-05-08T01:57:24.682Z,15.52
2023-05-08T01:58:24.649Z,15.51
2023-05-08T01:59:25.598Z,15.52
2023-05-08T02:00:24.704Z,15.52
2023-05-08T02:01:28.263Z,15.52
2023-05-08T02:02:25.103Z,15.54
2023-05-08T02:03:26.178Z,15.52
2023-05-08T02:04:25.239Z,15.52
2023-05-08T02:05:25.093Z,15.51
2023-05-08T02:06:25.545Z,15.49
2023-05-08T02:07:26.049Z,15.51
2023-05-08T02:10:19.002Z,15.39
2023-05-08T02:11:21.733Z,15.33
2023-05-08T02:12:17.991Z,15.30
2023-05-08T02:13:18.067Z,15.31
2023-05-08T02:14:18.092Z,15.30
2023-05-08T02:15:18.322Z,15.31
2023-05-08T02:16:19.767Z,15.33
2023-05-08T02:17:18.342Z,15.35
2023-05-08T02:18:18.486Z,15.35
2023-05-08T02:19:19.428Z,15.36
2023-05-08T02:20:18.816Z,15.36
2023-05-08T02:21:18.839Z,15.36
2023-05-08T02:22:19.317Z,15.38
2023-05-08T02:23:18.877Z,15.38
2023-05-08T02:24:21.345Z,15.38
2023-05-08T02:25:19.677Z,15.36
2023-05-08T02:26:19.109Z,15.39
2023-05-08T02:27:19.469Z,15.38
2023-05-08T02:28:21.353Z,15.36
2023-05-08T02:29:20.339Z,15.38
2023-05-08T02:30:19.521Z,15.38
2023-05-08T02:31:19.724Z,15.39
2023-05-08T02:32:19.754Z,15.39
2023-05-08T02:33:20.537Z,15.39
2023-05-08T02:34:19.752Z,15.39
2023-05-08T02:35:23.512Z,15.41
2023-05-08T02:36:20.179Z,15.39
2023-05-08T02:37:21.375Z,15.41
2023-05-08T02:38:20.114Z,15.42
2023-05-08T02:39:20.222Z,15.41
2023-05-08T02:40:20.899Z,15.42
2023-05-08T02:41:20.633Z,15.43
2023-05-08T02:42:20.482Z,15.45
2023-05-08T02:43:21.395Z,15.45
2023-05-08T02:44:20.518Z,15.46
2023-05-08T02:45:20.919Z,15.45
2023-05-08T02:46:20.727Z,15.45
2023-05-08T02:47:20.926Z,15.45
2023-05-08T02:48:21.092Z,15.43
2023-05-08T02:49:21.063Z,15.42
2023-05-08T02:50:21.031Z,15.43
2023-05-08T02:51:21.250Z,15.42
2023-05-08T02:52:21.712Z,15.41
2023-05-08T02:53:21.535Z,15.42
2023-05-08T02:54:22.704Z,15.39
2023-05-08T02:55:21.706Z,15.38
2023-05-08T02:56:21.746Z,15.36
2023-05-08T02:57:21.665Z,15.35
2023-05-08T02:58:21.777Z,15.33
2023-05-08T02:59:21.958Z,15.31
2023-05-08T03:00:21.910Z,15.30
2023-05-08T03:01:22.409Z,15.31
2023-05-08T03:02:22.139Z,15.28
2023-05-08T03:03:22.317Z,15.28
2023-05-08T03:04:22.367Z,15.28
2023-05-08T03:05:23.850Z,15.28
2023-05-08T03:06:22.419Z,15.27
2023-05-08T03:07:22.512Z,15.26
2023-05-08T03:08:23.625Z,15.26
2023-05-08T03:09:22.778Z,15.24
2023-05-08T03:10:22.795Z,15.23
2023-05-08T03:11:22.795Z,15.21
2023-05-08T03:12:22.949Z,15.21
2023-05-08T03:13:23.136Z,15.21
2023-05-08T03:14:23.133Z,15.21
2023-05-08T03:15:24.125Z,15.21
2023-05-08T03:16:23.622Z,15.21
2023-05-08T03:17:23.249Z,15.20
2023-05-08T03:18:23.305Z,15.19
2023-05-08T03:19:23.498Z,15.19
2023-05-08T03:20:23.423Z,15.17
2023-05-08T03:21:23.537Z,15.15
2023-05-08T03:22:23.588Z,15.17
2023-05-08T03:23:23.720Z,15.17
2023-05-08T03:24:23.789Z,15.15
2023-05-08T03:25:23.938Z,15.15
2023-05-08T03:26:23.932Z,15.13
2023-05-08T03:27:24.016Z,15.17
2023-05-08T03:28:24.246Z,15.15
2023-05-08T03:29:24.166Z,15.15
2023-05-08T03:30:24.205Z,15.15
2023-05-08T03:31:24.361Z,15.17
2023-05-08T03:32:24.409Z,15.19
2023-05-08T03:33:24.518Z,15.19
2023-05-08T03:34:24.550Z,15.19
2023-05-08T03:35:24.671Z,15.20
2023-05-08T03:36:24.738Z,15.20
2023-05-08T03:37:24.840Z,15.20
2023-05-08T03:38:24.913Z,15.19
2023-05-08T03:39:24.987Z,15.17
2023-05-08T03:40:25.028Z,15.13
2023-05-08T03:41:26.133Z,15.15
2023-05-08T03:42:25.221Z,15.13
2023-05-08T03:43:25.340Z,15.13
2023-05-08T03:44:25.420Z,15.11
2023-05-08T03:45:25.467Z,15.09
2023-05-08T03:46:25.582Z,15.08
2023-05-08T03:47:25.644Z,15.06
2023-05-08T03:48:25.712Z,15.05
2023-05-08T03:49:25.767Z,15.03
2023-05-08T03:50:25.853Z,15.05
2023-05-08T03:51:25.952Z,15.02
2023-05-08T03:52:26.068Z,15.02
2023-05-08T03:53:26.153Z,15.01
2023-05-08T03:54:26.199Z,15.01
2023-05-08T03:55:26.319Z,14.99
2023-05-08T03:56:26.377Z,15.01
2023-05-08T03:57:26.475Z,14.99
2023-05-08T03:58:26.546Z,14.99
2023-05-08T03:59:26.612Z,14.99
2023-05-08T04:00:26.687Z,14.95
2023-05-08T04:01:26.763Z,14.95
2023-05-08T04:02:26.954Z,14.94
2023-05-08T04:03:27.074Z,14.94
2023-05-08T04:04:26.973Z,14.91
2023-05-08T04:05:27.099Z,14.91
2023-05-08T04:06:28.828Z,14.90
2023-05-08T04:07:27.275Z,14.90
2023-05-08T04:08:27.332Z,14.90
2023-05-08T04:09:27.387Z,14.88
2023-05-08T04:10:27.481Z,14.88
2023-05-08T04:11:27.588Z,14.87
2023-05-08T04:12:27.665Z,14.87
2023-05-08T04:13:27.907Z,14.86
2023-05-08T04:14:28.637Z,14.84
2023-05-08T04:15:27.894Z,14.83
2023-05-08T04:16:28.001Z,14.81
2023-05-08T04:17:28.085Z,14.78
2023-05-08T04:18:28.095Z,14.78
2023-05-08T04:19:28.191Z,14.75
2023-05-08T04:20:28.297Z,14.78
2023-05-08T04:21:28.377Z,14.78
2023-05-08T04:22:28.437Z,14.80
2023-05-08T04:23:28.566Z,14.80
2023-05-08T04:24:28.654Z,14.81
2023-05-08T04:25:28.727Z,14.83
2023-05-08T04:26:28.813Z,14.84
2023-05-08T04:27:28.909Z,14.84
2023-05-08T04:28:28.976Z,14.86
2023-05-08T04:29:29.061Z,14.86
2023-05-08T04:30:29.107Z,14.88
2023-05-08T04:31:29.261Z,14.86
2023-05-08T04:32:29.314Z,14.86
2023-05-08T04:33:29.383Z,14.86
2023-05-08T04:34:29.432Z,14.86
2023-05-08T04:35:29.503Z,14.86
2023-05-08T04:36:29.598Z,14.84
2023-05-08T04:37:29.667Z,14.83
2023-05-08T04:38:29.747Z,14.84
2023-05-08T04:39:29.824Z,14.84
2023-05-08T04:40:29.881Z,14.84
2023-05-08T04:41:30.151Z,14.83
2023-05-08T04:42:30.072Z,14.86
2023-05-08T04:43:30.210Z,14.83
2023-05-08T04:44:30.221Z,14.84
2023-05-08T04:45:30.335Z,14.84
2023-05-08T04:46:30.479Z,14.86
2023-05-08T04:47:31.208Z,14.87
2023-05-08T04:48:30.586Z,14.88
2023-05-08T04:49:30.681Z,14.87
2023-05-08T04:50:30.775Z,14.87
2023-05-08T04:51:30.884Z,14.87
2023-05-08T04:52:30.984Z,14.88
2023-05-08T04:53:31.060Z,14.90
2023-05-08T04:54:31.115Z,14.90
2023-05-08T04:55:31.225Z,14.93
2023-05-08T04:56:31.274Z,14.91
2023-05-08T04:57:31.428Z,14.93
2023-05-08T04:58:31.421Z,14.94
2023-05-08T04:59:31.526Z,14.94
2023-05-08T05:00:31.567Z,14.95
2023-05-08T05:01:31.711Z,14.98
2023-05-08T05:02:31.819Z,14.98
2023-05-08T05:03:31.914Z,14.99
2023-05-08T05:04:31.882Z,14.99
2023-05-08T05:05:32.020Z,14.99
2023-05-08T05:06:32.051Z,14.98
2023-05-08T05:07:32.183Z,14.99
2023-05-08T05:08:32.231Z,14.99
2023-05-08T05:09:32.317Z,14.98
2023-05-08T05:10:32.408Z,14.99
2023-05-08T05:11:32.530Z,14.99
2023-05-08T05:12:32.608Z,15.01
2023-05-08T05:13:32.697Z,15.01
2023-05-08T05:14:32.802Z,15.02
2023-05-08T05:15:32.955Z,15.02
2023-05-08T05:16:32.961Z,15.03
2023-05-08T05:17:33.086Z,15.03
2023-05-08T05:18:33.064Z,15.03
2023-05-08T05:19:33.165Z,15.05
2023-05-08T05:20:34.152Z,15.06
2023-05-08T05:21:33.399Z,15.05
2023-05-08T05:22:33.406Z,15.06
2023-05-08T05:23:33.549Z,15.09
2023-05-08T05:24:33.568Z,15.08
2023-05-08T05:25:33.722Z,15.09
2023-05-08T05:26:35.210Z,15.11
2023-05-08T05:27:33.787Z,15.09
2023-05-08T05:28:33.830Z,15.09
2023-05-08T05:29:33.950Z,15.11
2023-05-08T05:30:34.145Z,15.11
2023-05-08T05:31:34.313Z,15.11
2023-05-08T05:32:34.407Z,15.11
2023-05-08T05:33:34.288Z,15.13
2023-05-08T05:34:34.357Z,15.13
2023-05-08T05:35:34.411Z,15.15
2023-05-08T05:36:34.515Z,15.13
2023-05-08T05:37:34.656Z,15.15
2023-05-08T05:38:34.664Z,15.17
2023-05-08T05:39:34.773Z,15.19
2023-05-08T05:40:34.879Z,15.19
2023-05-08T05:41:34.944Z,15.19
2023-05-08T05:42:35.367Z,15.19
2023-05-08T05:43:35.129Z,15.20
2023-05-08T05:44:35.180Z,15.21
2023-05-08T05:45:35.253Z,15.21
2023-05-08T05:46:35.379Z,15.21
2023-05-08T05:47:35.548Z,15.21
2023-05-08T05:48:35.474Z,15.21
2023-05-08T05:52:29.903Z,15.13
2023-05-08T05:53:46.414Z,15.11
2023-05-08T05:54:30.839Z,15.06
2023-05-08T05:55:30.932Z,15.06
2023-05-08T05:56:31.065Z,15.06
2023-05-08T06:07:50.346Z,14.64
2023-05-08T06:08:51.170Z,14.64
2023-05-08T06:09:51.247Z,14.67
2023-05-08T06:10:51.301Z,14.69
2023-05-08T06:11:51.376Z,14.72
2023-05-08T06:12:51.479Z,14.75
2023-05-08T06:13:53.269Z,14.78
2023-05-08T06:14:51.696Z,14.83
2023-05-08T06:15:51.752Z,14.83
2023-05-08T06:16:51.913Z,14.86
2023-05-08T06:17:51.945Z,14.87
2023-05-08T06:18:52.038Z,14.88
2023-05-08T06:19:52.155Z,14.88
2023-05-08T06:20:52.199Z,14.91
2023-05-08T06:21:52.300Z,14.93
2023-05-08T06:22:52.510Z,14.93
2023-05-08T06:23:52.453Z,14.93
2023-05-08T06:24:52.613Z,14.91
2023-05-08T06:25:52.661Z,14.93
2023-05-08T06:26:52.752Z,14.93
2023-05-08T06:27:52.811Z,14.94
2023-05-08T06:28:53.912Z,14.94
2023-05-08T06:29:53.538Z,14.94
2023-05-08T06:30:54.750Z,14.94
2023-05-08T06:31:53.222Z,14.95
2023-05-08T06:32:53.244Z,14.95
2023-05-08T06:33:53.490Z,14.94
2023-05-08T06:34:53.449Z,14.94
2023-05-08T06:35:53.493Z,14.94
2023-05-08T06:36:53.668Z,14.95
2023-05-08T06:37:53.648Z,14.95
2023-05-08T06:38:53.700Z,14.95
2023-05-08T06:40:03.843Z,14.94
2023-05-08T06:40:53.932Z,14.95
2023-05-08T06:41:54.668Z,14.94
2023-05-08T06:42:53.968Z,14.94
2023-05-08T06:43:54.078Z,14.94
2023-05-08T06:44:54.196Z,14.98
2023-05-08T06:45:54.306Z,14.95
2023-05-08T06:46:54.416Z,14.98
2023-05-08T06:47:54.739Z,14.98
2023-05-08T06:48:54.571Z,14.98
2023-05-08T06:49:55.233Z,14.99
2023-05-08T06:50:54.659Z,14.99
2023-05-08T06:51:57.201Z,15.02
2023-05-08T06:54:22.364Z,15.01
2023-05-08T06:55:21.157Z,14.99
2023-05-08T07:04:06.814Z,14.64
2023-05-08T07:05:08.610Z,14.64
2023-05-08T07:12:55.720Z,14.54
2023-05-08T07:17:50.896Z,14.44
2023-05-08T07:20:57.465Z,14.49
2023-05-08T07:22:24.394Z,14.50
2023-05-08T07:22:56.776Z,14.50
2023-05-08T07:25:53.810Z,14.60
2023-05-08T07:26:56.326Z,14.60
2023-05-08T07:27:53.298Z,14.62
2023-05-08T07:31:17.922Z,14.69
2023-05-08T07:32:19.662Z,14.69
2023-05-08T07:33:17.687Z,14.71
2023-05-08T07:34:17.420Z,14.72
2023-05-08T07:35:17.668Z,14.78
2023-05-08T07:36:17.468Z,14.81
2023-05-08T07:37:17.570Z,14.84
2023-05-08T07:38:17.654Z,14.87
2023-05-08T07:39:17.792Z,14.90
2023-05-08T07:40:18.110Z,14.93
2023-05-08T07:41:17.947Z,14.94
2023-05-08T07:42:18.017Z,14.98
2023-05-08T07:43:18.198Z,15.01
2023-05-08T07:44:18.292Z,15.02
2023-05-08T07:45:18.329Z,15.03
2023-05-08T07:46:20.776Z,15.05
2023-05-08T07:47:20.337Z,15.08
2023-05-08T07:48:19.026Z,15.09
2023-05-08T07:49:18.593Z,15.11
2023-05-08T07:50:18.683Z,15.12
2023-05-08T07:51:18.831Z,15.15
2023-05-08T07:52:18.912Z,15.15
2023-05-08T07:53:18.988Z,15.17
2023-05-08T07:54:19.105Z,15.19
2023-05-08T07:55:19.203Z,15.21
2023-05-08T07:56:19.285Z,15.23
2023-05-08T07:57:19.252Z,15.24
2023-05-08T07:58:22.024Z,15.24
2023-05-08T07:59:19.323Z,15.26
2023-05-08T08:00:22.429Z,15.26
2023-05-08T08:01:19.664Z,15.28
2023-05-08T08:02:19.691Z,15.30
2023-05-08T08:03:19.831Z,15.30
2023-05-08T08:04:19.840Z,15.33
2023-05-08T08:05:19.958Z,15.35
2023-05-08T08:06:20.792Z,15.35
2023-05-08T08:07:20.036Z,15.38
2023-05-08T08:08:22.366Z,15.39
2023-05-08T08:09:23.403Z,15.41
2023-05-08T08:13:02.343Z,15.27
2023-05-08T08:14:01.254Z,15.23
2023-05-08T08:14:59.261Z,15.21
2023-05-08T08:16:01.713Z,15.23
2023-05-08T08:17:01.211Z,15.24
2023-05-08T08:17:59.643Z,15.27
2023-05-08T08:19:10.197Z,15.30
2023-05-08T08:19:59.629Z,15.30
2023-05-08T08:20:59.727Z,15.30
2023-05-08T08:22:00.855Z,15.33
2023-05-08T08:26:17.300Z,15.17
2023-05-08T08:27:15.880Z,15.13
2023-05-08T08:28:15.896Z,15.12
2023-05-08T08:29:16.059Z,15.12
2023-05-08T08:30:18.000Z,15.17
2023-05-08T08:31:16.231Z,15.21
2023-05-08T08:32:16.312Z,15.23
2023-05-08T08:33:18.292Z,15.27
2023-05-08T08:34:16.434Z,15.28
2023-05-08T08:49:05.490Z,14.91
2023-05-08T08:50:05.079Z,14.93
2023-05-08T08:51:04.730Z,14.94
2023-05-08T08:52:04.802Z,14.98
2023-05-08T08:53:04.917Z,15.03
2023-05-08T08:54:05.476Z,15.08
2023-05-08T08:55:05.052Z,15.12
2023-05-08T08:56:05.174Z,15.19
2023-05-08T08:57:05.205Z,15.21
2023-05-08T08:58:05.267Z,15.23
2023-05-08T08:59:05.377Z,15.27
2023-05-08T09:00:05.480Z,15.31
2023-05-08T09:01:05.488Z,15.33
2023-05-08T09:02:05.570Z,15.38
2023-05-08T09:03:05.824Z,15.36
2023-05-08T09:04:05.914Z,15.41
2023-05-08T09:05:05.873Z,15.42
2023-05-08T09:06:05.887Z,15.45
2023-05-08T09:07:06.021Z,15.46
2023-05-08T09:08:06.080Z,15.51
2023-05-08T09:09:06.158Z,15.54
2023-05-08T09:10:06.341Z,15.56
2023-05-08T09:11:06.301Z,15.59
2023-05-08T09:12:06.399Z,15.59
2023-05-08T09:13:06.556Z,15.61
2023-05-08T09:14:06.560Z,15.63
2023-05-08T09:15:06.609Z,15.66
2023-05-08T09:16:06.715Z,15.67
2023-05-08T09:17:06.761Z,15.68
2023-05-08T09:18:06.941Z,15.70
2023-05-08T09:19:06.950Z,15.70
2023-05-08T09:20:07.033Z,15.70
2023-05-08T09:21:07.075Z,15.72
2023-05-08T09:22:07.154Z,15.72
2023-05-08T09:23:07.263Z,15.74
2023-05-08T09:24:07.409Z,15.76
2023-05-08T09:25:07.434Z,15.76
2023-05-08T09:26:07.508Z,15.78
2023-05-08T09:27:07.678Z,15.81
2023-05-08T09:28:07.667Z,15.81
2023-05-08T09:29:07.793Z,15.84
2023-05-08T09:30:07.854Z,15.86
2023-05-08T09:31:07.920Z,15.88
2023-05-08T09:32:08.024Z,15.92
2023-05-08T09:33:08.158Z,15.92
2023-05-08T09:34:08.155Z,15.93
2023-05-08T09:35:08.274Z,15.96
2023-05-08T09:36:08.353Z,15.96
2023-05-08T09:37:08.397Z,15.96
2023-05-08T09:38:08.535Z,15.99
2023-05-08T09:39:08.634Z,16.00
2023-05-08T09:40:08.698Z,16.00
2023-05-08T09:41:08.812Z,16.03
2023-05-08T09:42:08.845Z,16.03
2023-05-08T09:43:08.975Z,16.07
2023-05-08T09:44:09.040Z,16.09
2023-05-08T09:45:09.095Z,16.09
2023-05-08T09:46:09.241Z,16.14
2023-05-08T09:47:09.291Z,16.12
2023-05-08T09:48:09.424Z,16.12
2023-05-08T09:49:09.479Z,16.14
2023-05-08T09:50:09.549Z,16.14
2023-05-08T09:51:09.650Z,16.15
2023-05-08T09:52:09.741Z,16.16
2023-05-08T09:53:09.706Z,16.16
2023-05-08T09:54:09.914Z,16.20
2023-05-08T09:55:09.893Z,16.22
2023-05-08T09:56:10.007Z,16.20
2023-05-08T09:57:10.146Z,16.23
2023-05-08T09:58:10.308Z,16.23
2023-05-08T10:04:06.538Z,16.01
2023-05-08T10:05:07.216Z,15.97
2023-05-08T10:06:06.397Z,15.97
2023-05-08T10:07:06.608Z,15.99
2023-05-08T10:08:06.714Z,16.01
2023-05-08T10:09:06.818Z,16.04
2023-05-08T10:10:06.940Z,16.06
2023-05-08T10:11:06.803Z,16.09
2023-05-08T10:12:06.895Z,16.12
2023-05-08T10:13:07.100Z,16.14
2023-05-08T10:14:07.116Z,16.14
2023-05-08T10:15:07.185Z,16.15
2023-05-08T10:16:07.975Z,16.16
2023-05-08T10:17:07.612Z,16.22
2023-05-08T10:18:07.743Z,16.25
2023-05-08T10:19:07.823Z,16.26
2023-05-08T10:20:07.667Z,16.30
2023-05-08T10:21:07.704Z,16.33
2023-05-08T10:22:07.790Z,16.35
2023-05-08T10:23:07.873Z,16.35
2023-05-08T10:24:07.953Z,16.38
2023-05-08T10:25:08.008Z,16.42
2023-05-08T10:26:08.351Z,16.42
2023-05-08T10:33:53.976Z,16.22
2023-05-08T10:34:54.552Z,16.23
2023-05-08T10:35:54.644Z,16.25
2023-05-08T10:36:54.702Z,16.25
2023-05-08T10:52:12.417Z,16.09
2023-05-08T10:53:13.365Z,16.09
2023-05-08T10:54:13.388Z,16.09
2023-05-08T10:55:13.488Z,16.15
2023-05-08T10:56:13.558Z,16.22
2023-05-08T10:57:13.665Z,16.27
2023-05-08T10:58:13.734Z,16.35
2023-05-08T10:59:13.861Z,16.41
2023-05-08T11:00:14.102Z,16.49
2023-05-08T11:01:14.012Z,16.55
2023-05-08T11:02:14.169Z,16.62
2023-05-08T11:03:27.307Z,16.67
2023-05-08T11:08:26.880Z,16.74
2023-05-08T11:09:26.996Z,16.75
2023-05-08T11:10:27.014Z,16.78
2023-05-08T11:11:27.123Z,16.85
2023-05-08T11:12:27.159Z,16.88
2023-05-08T11:13:27.277Z,16.93
2023-05-08T11:14:27.400Z,16.98
2023-05-08T11:15:27.412Z,17.03
2023-05-08T11:16:27.512Z,17.07
2023-05-08T11:17:27.656Z,17.11
2023-05-08T11:18:32.520Z,17.14
2023-05-08T11:19:27.769Z,17.18
2023-05-08T11:20:27.836Z,17.22
2023-05-08T11:21:27.874Z,17.26
2023-05-08T11:22:27.981Z,17.30
2023-05-08T11:23:28.076Z,17.36
2023-05-08T11:24:28.216Z,17.40
2023-05-08T11:25:28.253Z,17.44
2023-05-08T11:26:28.340Z,17.48
2023-05-08T11:27:28.406Z,17.54
2023-05-08T11:28:28.576Z,17.57
2023-05-08T11:29:28.626Z,17.63
2023-05-08T11:30:28.718Z,17.69
2023-05-08T11:31:28.823Z,17.70
2023-05-08T11:32:28.920Z,17.74
2023-05-08T11:33:28.927Z,17.78
2023-05-08T11:34:29.019Z,17.81
2023-05-08T11:35:29.134Z,17.82
2023-05-08T11:36:29.167Z,17.84
2023-05-08T11:37:29.245Z,17.87
2023-05-08T11:38:29.303Z,17.85
2023-05-08T11:39:29.493Z,17.85
2023-05-08T11:40:29.486Z,17.87
2023-05-08T11:41:29.580Z,17.85
2023-05-08T11:42:29.698Z,17.85
2023-05-08T11:43:29.766Z,17.84
2023-05-08T11:44:29.841Z,17.84
2023-05-08T11:45:29.909Z,17.82
2023-05-08T11:46:30.076Z,17.81
2023-05-08T11:47:30.099Z,17.81
2023-05-08T11:48:30.169Z,17.79
2023-05-08T11:49:30.294Z,17.78
2023-05-08T11:50:30.329Z,17.74
2023-05-08T11:51:30.484Z,17.73
2023-05-08T11:52:30.584Z,17.70
2023-05-08T11:53:30.614Z,17.69
2023-05-08T11:54:30.709Z,17.66
2023-05-08T11:55:30.816Z,17.66
2023-05-08T11:56:30.846Z,17.64
2023-05-08T11:57:30.946Z,17.62
2023-05-08T11:58:31.098Z,17.57
2023-05-08T11:59:31.101Z,17.55
2023-05-08T12:00:33.368Z,17.54
2023-05-08T12:01:31.259Z,17.53
2023-05-08T12:09:33.095Z,16.99
2023-05-08T12:10:33.976Z,16.95
2023-05-08T12:13:36.439Z,16.80
2023-05-08T12:14:37.445Z,16.77
2023-05-08T12:15:37.547Z,16.75
2023-05-08T12:16:38.199Z,16.77
2023-05-08T12:17:37.590Z,16.78
2023-05-08T12:18:39.731Z,16.80
2023-05-08T12:19:37.674Z,16.83
2023-05-08T12:20:37.748Z,16.85
2023-05-08T12:21:37.798Z,16.86
2023-05-08T12:22:37.898Z,16.88
2023-05-08T12:23:38.000Z,16.90
2023-05-08T12:24:38.050Z,16.92
2023-05-08T12:25:38.160Z,16.93
2023-05-08T12:26:38.278Z,16.95
2023-05-08T12:27:38.309Z,16.98
2023-05-08T12:28:38.563Z,16.98
2023-05-08T12:41:15.971Z,16.55
2023-05-08T12:42:16.767Z,16.55
2023-05-08T12:43:16.741Z,16.56
2023-05-08T12:44:16.780Z,16.58
2023-05-08T12:45:16.871Z,16.62
2023-05-08T12:46:17.034Z,16.65
2023-05-08T12:47:17.295Z,16.70
2023-05-08T12:48:17.132Z,16.73
2023-05-08T12:49:17.203Z,16.77
2023-05-08T12:50:17.274Z,16.78
2023-05-08T12:51:17.329Z,16.81
2023-05-08T12:52:17.479Z,16.85
2023-05-08T12:53:17.599Z,16.86
2023-05-08T12:54:17.590Z,16.88
2023-05-08T12:55:17.690Z,16.89
2023-05-08T12:56:17.737Z,16.89
2023-05-08T12:57:17.838Z,16.89
2023-05-08T12:58:17.892Z,16.90
2023-05-08T13:03:40.656Z,16.74
2023-05-08T13:04:41.481Z,16.73
2023-05-08T13:05:41.237Z,16.73
2023-05-08T13:06:41.492Z,16.74
2023-05-08T13:07:41.457Z,16.77
2023-05-08T13:08:41.533Z,16.77
2023-05-08T13:09:41.581Z,16.81
2023-05-08T13:10:41.694Z,16.81
2023-05-08T13:11:41.736Z,16.85
2023-05-08T13:12:41.894Z,16.86
2023-05-08T13:13:41.906Z,16.90
2023-05-08T13:14:42.016Z,16.89
2023-05-08T13:15:42.055Z,16.92
2023-05-08T13:16:42.163Z,16.92
2023-05-08T13:17:42.605Z,16.93
2023-05-08T13:18:42.291Z,16.92
2023-05-08T13:19:42.403Z,16.93
2023-05-08T13:20:42.488Z,16.93
2023-05-08T13:21:42.585Z,16.95
2023-05-08T13:22:42.696Z,16.95
2023-05-08T13:23:42.771Z,16.93
2023-05-08T13:24:42.874Z,16.93
2023-05-08T13:25:42.910Z,16.93
2023-05-08T13:26:43.008Z,16.95
2023-05-08T13:27:43.119Z,16.96
2023-05-08T13:28:43.153Z,16.95
2023-05-08T13:29:43.264Z,16.96
2023-05-08T13:30:43.327Z,16.95
2023-05-08T13:31:43.480Z,16.96
2023-05-08T13:32:43.609Z,16.96
2023-05-08T13:33:43.604Z,16.96
2023-05-08T17:46:35.744Z,15.67
2023-05-08T17:47:36.888Z,15.74
2023-05-08T17:48:36.887Z,15.76
2023-05-08T17:49:36.981Z,15.82
2023-05-08T17:50:37.055Z,15.85
2023-05-08T17:51:37.212Z,15.93
2023-05-08T17:52:37.213Z,15.99
2023-05-08T17:53:37.319Z,16.01
2023-05-08T17:54:37.383Z,16.06
2023-05-08T17:55:37.478Z,16.09
2023-05-08T17:56:37.552Z,16.14
2023-05-08T17:57:37.622Z,16.14
2023-05-08T17:58:37.686Z,16.16
2023-05-08T17:59:37.794Z,16.16
2023-05-08T18:00:37.903Z,16.22
2023-05-08T18:01:38.049Z,16.22
2023-05-08T18:02:38.067Z,16.25
2023-05-08T18:03:38.128Z,16.26
2023-05-08T18:04:38.220Z,16.27
2023-05-08T18:05:38.304Z,16.30
2023-05-08T18:06:38.419Z,16.31
2023-05-08T18:07:38.478Z,16.31
2023-05-08T18:08:40.798Z,16.33
2023-05-08T18:09:38.660Z,16.34
2023-05-08T18:10:38.697Z,16.34
2023-05-08T18:11:38.834Z,16.34
2023-05-08T18:12:39.027Z,16.34
2023-05-08T18:13:38.964Z,16.37
2023-05-08T18:14:39.059Z,16.37
2023-05-08T18:15:39.262Z,16.37
2023-05-08T18:16:39.349Z,16.37
2023-05-08T18:17:39.421Z,16.37
2023-05-08T18:18:39.402Z,16.37
2023-05-08T18:19:39.452Z,16.38
2023-05-08T18:20:39.548Z,16.38
2023-05-08T18:21:39.667Z,16.38
2023-05-08T18:22:40.014Z,16.40
2023-05-08T18:23:39.806Z,16.40
2023-05-08T18:24:39.901Z,16.40
2023-05-08T18:25:40.014Z,16.40
2023-05-08T18:26:40.083Z,16.40
2023-05-08T18:27:40.209Z,16.38
2023-05-08T18:28:40.257Z,16.40
2023-05-08T18:29:40.355Z,16.38
2023-05-08T18:30:40.419Z,16.38
2023-05-08T18:31:40.495Z,16.37
2023-05-08T18:32:40.670Z,16.38
2023-05-08T18:33:41.526Z,16.35
2023-05-08T18:34:40.719Z,16.38
2023-05-08T18:35:40.786Z,16.37
2023-05-08T18:36:40.868Z,16.37
2023-05-08T18:37:40.926Z,16.37
2023-05-08T18:38:40.982Z,16.37
2023-05-08T18:39:41.064Z,16.38
2023-05-08T18:40:41.134Z,16.37
2023-05-08T18:41:41.176Z,16.37
2023-05-08T18:42:41.264Z,16.38
2023-05-08T18:43:41.330Z,16.38
2023-05-08T18:44:41.437Z,16.38
2023-05-08T18:45:41.543Z,16.38
2023-05-08T18:46:41.711Z,16.40
2023-05-08T18:47:41.706Z,16.38
2023-05-08T18:48:41.738Z,16.38
2023-05-08T18:49:42.469Z,16.38
2023-05-08T19:14:13.426Z,15.41
2023-05-08T19:15:14.622Z,15.41
2023-05-08T19:16:14.513Z,15.43
2023-05-08T19:17:14.592Z,15.48
2023-05-08T19:18:14.630Z,15.54
2023-05-08T19:19:14.732Z,15.57
2023-05-08T19:20:15.109Z,15.61
2023-05-08T19:21:14.873Z,15.64
2023-05-08T19:22:14.974Z,15.67
2023-05-08T19:23:15.034Z,15.70
2023-05-08T19:24:15.120Z,15.74
2023-05-08T19:25:15.178Z,15.74
2023-05-08T19:26:15.250Z,15.78
2023-05-08T19:27:15.364Z,15.81
2023-05-08T19:28:15.408Z,15.82
2023-05-08T19:29:15.503Z,15.84
2023-05-08T19:30:15.841Z,15.86
2023-05-08T19:31:15.676Z,15.86
2023-05-08T19:32:15.797Z,15.88
2023-05-08T19:33:15.880Z,15.89
2023-05-08T19:34:15.943Z,15.92
2023-05-08T19:35:16.015Z,15.92
2023-05-08T19:36:16.116Z,15.93
2023-05-08T19:37:16.239Z,15.96
2023-05-08T19:38:16.233Z,15.96
2023-05-08T19:39:16.327Z,15.97
2023-05-08T19:40:16.635Z,16.00
2023-05-08T19:41:16.511Z,16.00
2023-05-08T19:42:16.640Z,16.00
2023-05-08T19:43:16.678Z,16.04
2023-05-08T19:44:16.796Z,16.03